createdAt,value
2023-12-30T00:01:41.925Z,156.57
2023-12-30T00:04:10.480Z,164.30
2023-12-30T00:06:38.888Z,160.30
2023-12-30T00:09:07.299Z,167.93
2023-12-30T00:11:37.026Z,168.97
2023-12-30T00:14:05.412Z,172.07
2023-12-30T00:16:33.905Z,174.40
2023-12-30T00:19:02.461Z,165.93
2023-12-30T00:21:31.254Z,169.33
2023-12-30T00:23:59.686Z,163.20
2023-12-30T00:26:28.599Z,161.80
2023-12-30T00:28:58.485Z,164.23
2023-12-30T00:31:27.986Z,166.60
2023-12-30T00:33:57.243Z,161.67
2023-12-30T00:36:25.679Z,173.77
2023-12-30T00:38:55.592Z,172.83
2023-12-30T00:41:24.029Z,159.93
2023-12-30T00:43:52.416Z,170.33
2023-12-30T00:46:22.783Z,163.10
2023-12-30T00:48:57.195Z,160.23
2023-12-30T00:51:26.714Z,171.27
2023-12-30T00:53:55.111Z,167.37
2023-12-30T00:56:23.500Z,169.37
2023-12-30T00:58:51.944Z,172.47
2023-12-30T01:01:21.762Z,173.20
2023-12-30T01:03:50.250Z,172.17
2023-12-30T01:06:18.707Z,163.70
2023-12-30T01:08:47.127Z,172.80
2023-12-30T01:11:15.725Z,181.53
2023-12-30T01:13:44.174Z,165.53
2023-12-30T01:16:12.637Z,179.00
2023-12-30T01:18:42.709Z,163.80
2023-12-30T01:21:11.169Z,172.30
2023-12-30T01:23:39.557Z,170.03
2023-12-30T01:26:07.960Z,173.80
2023-12-30T01:28:37.727Z,170.53
2023-12-30T01:31:06.578Z,171.33
2023-12-30T01:33:35.352Z,169.37
2023-12-30T01:36:06.535Z,166.33
2023-12-30T01:38:34.903Z,168.20
2023-12-30T01:41:03.320Z,159.10
2023-12-30T01:43:34.429Z,166.40
2023-12-30T01:46:02.848Z,161.43
2023-12-30T01:48:32.288Z,165.57
2023-12-30T01:51:01.492Z,167.90
2023-12-30T01:53:33.885Z,168.00
2023-12-30T01:56:02.359Z,165.37
2023-12-30T01:58:31.248Z,164.93
2023-12-30T02:01:00.037Z,170.17
2023-12-30T02:03:28.555Z,181.80
2023-12-30T02:05:57.080Z,166.40
2023-12-30T02:08:25.597Z,180.73
2023-12-30T02:10:55.426Z,177.03
2023-12-30T02:13:23.975Z,178.50
2023-12-30T02:15:52.427Z,178.87
2023-12-30T02:18:20.959Z,183.80
2023-12-30T02:20:49.405Z,181.93
2023-12-30T02:23:19.188Z,178.07
2023-12-30T02:25:47.688Z,175.23
2023-12-30T02:28:16.132Z,171.53
2023-12-30T02:30:44.579Z,172.30
2023-12-30T02:33:13.114Z,180.30
2023-12-30T02:35:44.702Z,163.87
2023-12-30T02:38:13.564Z,172.73
2023-12-30T02:40:43.380Z,177.27
2023-12-30T02:43:11.802Z,174.13
2023-12-30T02:45:40.230Z,166.27
2023-12-30T02:48:09.281Z,166.57
2023-12-30T02:50:37.783Z,170.20
2023-12-30T02:53:06.219Z,168.33
2023-12-30T02:55:34.658Z,172.63
2023-12-30T02:58:04.520Z,172.20
2023-12-30T03:00:32.942Z,168.63
2023-12-30T03:03:01.546Z,169.70
2023-12-30T03:05:30.145Z,165.80
2023-12-30T03:07:58.983Z,163.57
2023-12-30T03:10:27.563Z,163.47
2023-12-30T03:12:56.243Z,168.83
2023-12-30T03:15:26.032Z,165.90
2023-12-30T03:17:54.497Z,161.67
2023-12-30T03:20:22.909Z,164.20
2023-12-30T03:22:51.355Z,171.30
2023-12-30T03:25:19.781Z,165.80
2023-12-30T03:27:48.348Z,163.07
2023-12-30T03:30:17.002Z,165.40
2023-12-30T03:32:47.595Z,162.90
2023-12-30T03:35:16.033Z,160.73
2023-12-30T03:37:44.544Z,163.03
2023-12-30T03:40:13.486Z,162.63
2023-12-30T03:42:41.873Z,170.33
2023-12-30T03:45:11.002Z,159.90
2023-12-30T03:47:39.407Z,169.80
2023-12-30T03:50:09.610Z,159.63
2023-12-30T03:52:38.165Z,162.70
2023-12-30T03:55:07.011Z,170.40
2023-12-30T03:57:35.399Z,174.40
2023-12-30T04:00:03.951Z,180.30
2023-12-30T04:02:32.399Z,163.93
2023-12-30T04:05:00.890Z,177.50
2023-12-30T04:07:30.729Z,163.47
2023-12-30T04:09:59.212Z,164.40
2023-12-30T04:12:27.653Z,156.23
2023-12-30T04:14:56.117Z,160.77
2023-12-30T04:17:24.512Z,159.40
2023-12-30T04:19:52.938Z,167.57
2023-12-30T04:22:21.490Z,162.33
2023-12-30T04:24:53.789Z,161.97
2023-12-30T04:27:23.056Z,160.03
2023-12-30T04:29:51.437Z,166.33
2023-12-30T04:32:20.115Z,166.07
2023-12-30T04:34:48.567Z,163.70
2023-12-30T04:37:17.056Z,162.43
2023-12-30T04:39:45.460Z,159.93
2023-12-30T04:42:16.282Z,165.67
2023-12-30T04:44:44.730Z,155.93
2023-12-30T04:47:13.147Z,163.87
2023-12-30T04:49:41.620Z,155.73
2023-12-30T04:52:10.059Z,158.07
2023-12-30T04:54:38.799Z,162.23
2023-12-30T04:57:07.343Z,161.40
2023-12-30T04:59:37.813Z,156.97
2023-12-30T05:02:06.405Z,161.60
2023-12-30T05:04:34.906Z,164.27
2023-12-30T05:07:03.339Z,158.17
2023-12-30T05:09:31.725Z,153.83
2023-12-30T05:12:00.217Z,156.93
2023-12-30T05:14:28.605Z,156.93
2023-12-30T05:16:58.369Z,160.80
2023-12-30T05:19:26.855Z,151.40
2023-12-30T05:21:55.957Z,155.87
2023-12-30T05:24:24.319Z,148.30
2023-12-30T05:26:52.727Z,156.87
2023-12-30T05:29:21.842Z,149.80
2023-12-30T05:31:50.347Z,160.60
2023-12-30T05:34:20.264Z,164.37
2023-12-30T05:36:48.777Z,162.20
2023-12-30T05:39:17.125Z,163.17
2023-12-30T05:41:45.536Z,165.37
2023-12-30T05:44:14.406Z,167.17
2023-12-30T05:46:42.802Z,164.07
2023-12-30T05:49:11.364Z,163.73
2023-12-30T05:51:44.970Z,162.87
2023-12-30T05:54:13.846Z,160.03
2023-12-30T05:56:42.209Z,163.17
2023-12-30T05:59:10.677Z,164.93
2023-12-30T06:01:45.726Z,172.03
2023-12-30T06:04:14.406Z,163.63
2023-12-30T06:06:44.633Z,174.50
2023-12-30T06:09:13.722Z,161.60
2023-12-30T06:11:42.089Z,164.93
2023-12-30T06:14:10.701Z,163.67
2023-12-30T06:16:40.037Z,173.93
2023-12-30T06:19:08.561Z,164.27
2023-12-30T06:21:37.259Z,172.13
2023-12-30T06:24:07.381Z,159.23
2023-12-30T06:26:38.886Z,158.07
2023-12-30T06:29:07.522Z,163.60
2023-12-30T06:31:36.110Z,154.83
2023-12-30T06:34:04.606Z,161.30
2023-12-30T06:36:33.057Z,163.70
2023-12-30T06:39:01.470Z,153.97
2023-12-30T06:41:31.236Z,169.73
2023-12-30T06:43:59.611Z,159.80
2023-12-30T06:46:28.120Z,161.83
2023-12-30T06:48:56.708Z,159.50
2023-12-30T06:51:25.132Z,161.33
2023-12-30T06:53:53.586Z,163.37
2023-12-30T06:56:22.112Z,162.93
2023-12-30T06:58:53.180Z,162.20
2023-12-30T07:01:22.140Z,160.27
2023-12-30T07:03:50.629Z,160.23
2023-12-30T07:06:19.005Z,169.87
2023-12-30T07:08:47.409Z,165.40
2023-12-30T07:11:15.809Z,166.17
2023-12-30T07:13:44.570Z,161.23
2023-12-30T07:16:16.608Z,174.30
2023-12-30T07:18:45.211Z,177.00
2023-12-30T07:21:14.628Z,168.13
2023-12-30T07:23:43.905Z,179.13
2023-12-30T07:26:12.282Z,173.83
2023-12-30T07:28:40.702Z,183.03
2023-12-30T07:31:09.314Z,185.67
2023-12-30T07:33:39.595Z,179.00
2023-12-30T07:36:09.008Z,185.83
2023-12-30T07:38:37.418Z,169.73
2023-12-30T07:41:05.878Z,179.27
2023-12-30T07:43:34.320Z,184.53
2023-12-30T07:46:02.813Z,173.47
2023-12-30T07:48:33.051Z,179.10
2023-12-30T07:51:02.811Z,191.00
2023-12-30T07:53:31.220Z,183.33
2023-12-30T07:55:59.579Z,180.37
2023-12-30T07:58:28.017Z,196.10
2023-12-30T08:00:56.526Z,125.97
2023-12-30T08:03:24.989Z,151.13
2023-12-30T08:05:53.426Z,155.00
2023-12-30T08:08:23.192Z,172.67
2023-12-30T08:10:51.610Z,179.17
2023-12-30T08:13:20.233Z,184.93
2023-12-30T08:15:48.654Z,181.97
2023-12-30T08:18:17.260Z,136.57
2023-12-30T08:20:45.773Z,150.10
2023-12-30T08:23:14.152Z,165.90
2023-12-30T08:25:43.937Z,185.73
2023-12-30T08:28:12.421Z,175.20
2023-12-30T08:30:40.878Z,186.90
2023-12-30T08:33:11.027Z,171.60
2023-12-30T08:35:39.625Z,144.70
2023-12-30T08:38:08.042Z,169.10
2023-12-30T08:40:37.356Z,177.20
2023-12-30T08:43:07.771Z,176.27
2023-12-30T08:45:36.489Z,184.97
2023-12-30T08:48:05.177Z,183.93
2023-12-30T08:50:33.749Z,158.37
2023-12-30T08:53:02.441Z,155.47
2023-12-30T08:55:31.039Z,161.10
2023-12-30T08:57:59.495Z,175.63
2023-12-30T09:00:29.385Z,194.30
2023-12-30T09:02:58.887Z,180.37
2023-12-30T09:05:27.711Z,167.67
2023-12-30T09:07:56.184Z,157.90
2023-12-30T09:10:24.603Z,162.83
2023-12-30T09:12:53.172Z,159.97
2023-12-30T09:15:21.716Z,167.93
2023-12-30T09:17:51.618Z,170.70
2023-12-30T09:20:20.224Z,158.33
2023-12-30T09:22:48.717Z,154.87
2023-12-30T09:25:17.170Z,155.70
2023-12-30T09:27:47.328Z,166.63
2023-12-30T09:30:16.709Z,178.30
2023-12-30T09:32:45.327Z,187.27
2023-12-30T09:35:16.300Z,167.10
2023-12-30T09:37:44.763Z,163.23
2023-12-30T09:40:13.569Z,167.63
2023-12-30T09:42:44.190Z,176.00
2023-12-30T09:45:12.473Z,176.07
2023-12-30T09:47:41.717Z,179.23
2023-12-30T09:50:10.551Z,165.20
2023-12-30T09:52:40.734Z,172.93
2023-12-30T09:55:09.524Z,176.07
2023-12-30T09:57:38.038Z,173.40
2023-12-30T10:00:07.323Z,192.33
2023-12-30T10:02:36.764Z,160.67
2023-12-30T10:05:05.635Z,164.30
2023-12-30T10:07:35.339Z,167.60
2023-12-30T10:10:05.204Z,178.57
2023-12-30T10:12:33.592Z,175.10
2023-12-30T10:15:02.056Z,156.07
2023-12-30T10:17:30.517Z,159.47
2023-12-30T10:19:59.238Z,157.97
2023-12-30T10:22:27.735Z,158.73
2023-12-30T10:24:56.691Z,158.60
2023-12-30T10:27:26.783Z,151.23
2023-12-30T10:30:00.395Z,149.27
2023-12-30T10:32:30.648Z,160.30
2023-12-30T10:34:59.330Z,164.73
2023-12-30T10:37:29.551Z,155.07
2023-12-30T10:39:58.660Z,149.70
2023-12-30T10:42:28.461Z,153.10
2023-12-30T10:44:56.944Z,155.60
2023-12-30T10:47:27.139Z,159.23
2023-12-30T10:49:58.022Z,155.27
2023-12-30T10:52:28.084Z,150.97
2023-12-30T10:54:58.126Z,147.27
2023-12-30T10:57:30.591Z,151.63
2023-12-30T11:00:00.330Z,153.40
2023-12-30T11:02:28.970Z,151.80
2023-12-30T11:04:58.147Z,153.20
2023-12-30T11:07:28.098Z,148.33
2023-12-30T11:09:56.568Z,157.07
2023-12-30T11:12:25.024Z,153.17
2023-12-30T11:14:54.807Z,156.17
2023-12-30T11:17:35.847Z,151.30
2023-12-30T11:20:25.269Z,151.27
2023-12-30T11:22:54.422Z,147.63
2023-12-30T11:25:22.907Z,152.93
2023-12-30T11:27:51.970Z,156.63
2023-12-30T11:30:26.659Z,162.93
2023-12-30T11:32:59.290Z,168.47
2023-12-30T11:35:28.433Z,168.63
2023-12-30T11:37:58.135Z,166.00
2023-12-30T11:40:27.650Z,162.33
2023-12-30T11:42:56.129Z,170.23
2023-12-30T11:45:25.875Z,161.73
2023-12-30T11:47:54.299Z,159.00
2023-12-30T11:50:23.394Z,167.80
2023-12-30T11:52:51.790Z,165.43
2023-12-30T11:55:20.416Z,159.37
2023-12-30T11:57:48.923Z,156.57
2023-12-30T12:00:17.486Z,155.30
2023-12-30T12:02:47.264Z,155.07
2023-12-30T12:05:16.189Z,152.83
2023-12-30T12:07:44.641Z,154.93
2023-12-30T12:10:13.334Z,156.37
2023-12-30T12:12:43.506Z,159.27
2023-12-30T12:15:12.168Z,144.33
2023-12-30T12:17:40.856Z,146.23
2023-12-30T12:20:12.645Z,146.17
2023-12-30T12:22:41.539Z,153.17
2023-12-30T12:25:10.932Z,151.97
2023-12-30T12:27:39.417Z,149.73
2023-12-30T12:30:10.394Z,154.90
2023-12-30T12:32:38.911Z,145.23
2023-12-30T12:35:07.763Z,145.27
2023-12-30T12:37:38.744Z,143.70
2023-12-30T12:40:12.009Z,139.90
2023-12-30T12:42:41.002Z,148.83
2023-12-30T12:45:10.341Z,151.53
2023-12-30T12:47:39.273Z,148.23
2023-12-30T12:50:08.392Z,147.37
2023-12-30T12:52:38.351Z,152.20
2023-12-30T12:55:07.488Z,152.30
2023-12-30T12:57:36.103Z,153.00
2023-12-30T13:00:09.934Z,158.77
2023-12-30T13:02:39.114Z,158.00
2023-12-30T13:05:10.841Z,164.73
2023-12-30T13:07:43.232Z,159.20
2023-12-30T13:10:34.645Z,159.23
2023-12-30T13:13:05.247Z,157.13
2023-12-30T13:15:34.090Z,162.30
2023-12-30T13:18:06.111Z,166.77
2023-12-30T13:20:34.599Z,160.23
2023-12-30T13:23:06.580Z,157.73
2023-12-30T13:25:35.119Z,157.20
2023-12-30T13:28:04.821Z,166.40
2023-12-30T13:30:35.870Z,169.20
2023-12-30T13:33:06.537Z,173.17
2023-12-30T13:35:38.584Z,168.03
2023-12-30T13:38:13.780Z,171.53
2023-12-30T13:40:43.128Z,164.50
2023-12-30T13:43:12.235Z,176.07
2023-12-30T13:45:46.636Z,169.23
2023-12-30T13:48:53.051Z,173.07
2023-12-30T13:51:21.319Z,163.53
2023-12-30T13:53:51.187Z,161.10
2023-12-30T13:56:22.398Z,158.80
2023-12-30T13:58:51.717Z,176.40
2023-12-30T14:01:23.596Z,176.17
2023-12-30T14:03:53.589Z,164.47
2023-12-30T14:06:29.635Z,158.43
2023-12-30T14:09:01.607Z,193.37
2023-12-30T14:11:34.952Z,175.07
2023-12-30T14:14:10.238Z,167.17
2023-12-30T14:16:40.041Z,153.80
2023-12-30T14:19:08.660Z,180.80
2023-12-30T14:21:38.135Z,194.73
2023-12-30T14:24:12.696Z,177.90
2023-12-30T14:26:41.142Z,160.97
2023-12-30T14:29:09.552Z,180.50
2023-12-30T14:31:37.972Z,203.63
2023-12-30T14:34:06.785Z,180.53
2023-12-30T14:36:35.409Z,176.00
2023-12-30T14:39:06.780Z,167.57
2023-12-30T14:41:38.702Z,178.07
2023-12-30T14:44:07.236Z,163.90
2023-12-30T14:46:35.662Z,159.77
2023-12-30T14:49:04.221Z,152.63
2023-12-30T14:51:33.131Z,152.33
2023-12-30T14:54:01.525Z,154.67
2023-12-30T14:56:29.923Z,151.23
2023-12-30T14:58:59.645Z,149.37
2023-12-30T15:01:28.130Z,145.63
2023-12-30T15:03:59.732Z,152.53
2023-12-30T15:06:28.989Z,156.53
2023-12-30T15:08:58.605Z,151.53
2023-12-30T15:11:28.610Z,147.90
2023-12-30T15:13:57.166Z,152.53
2023-12-30T15:16:27.003Z,154.70
2023-12-30T15:18:55.685Z,150.77
2023-12-30T15:21:24.117Z,153.60
2023-12-30T15:23:52.767Z,154.67
2023-12-30T15:26:21.242Z,162.67
2023-12-30T15:28:49.793Z,154.30
2023-12-30T15:31:18.516Z,151.17
2023-12-30T15:33:48.628Z,150.73
2023-12-30T15:36:17.220Z,157.07
2023-12-30T15:38:45.581Z,158.50
2023-12-30T15:41:14.683Z,149.40
2023-12-30T15:43:43.117Z,142.10
2023-12-30T15:46:11.786Z,148.07
2023-12-30T15:48:40.521Z,150.63
2023-12-30T15:51:10.335Z,148.83
2023-12-30T15:53:40.009Z,145.50
2023-12-30T15:56:09.047Z,147.73
2023-12-30T15:58:37.527Z,162.97
2023-12-30T16:01:06.052Z,177.17
2023-12-30T16:03:34.585Z,178.93
2023-12-30T16:06:03.103Z,185.87
2023-12-30T16:08:32.846Z,179.80
2023-12-30T16:11:01.325Z,178.80
2023-12-30T16:13:29.746Z,170.90
2023-12-30T16:15:59.873Z,178.17
2023-12-30T16:18:28.401Z,176.50
2023-12-30T16:20:57.357Z,170.83
2023-12-30T16:23:25.730Z,165.13
2023-12-30T16:25:55.612Z,168.77
2023-12-30T16:28:24.049Z,166.37
2023-12-30T16:30:52.491Z,166.53
2023-12-30T16:33:21.070Z,157.93
2023-12-30T16:35:49.649Z,159.43
2023-12-30T16:38:18.202Z,156.20
2023-12-30T16:40:46.740Z,158.27
2023-12-30T16:43:16.582Z,150.73
2023-12-30T16:45:46.296Z,154.67
2023-12-30T16:48:15.529Z,152.27
2023-12-30T16:50:44.040Z,145.90
2023-12-30T16:53:12.412Z,145.83
2023-12-30T16:55:41.436Z,144.10
2023-12-30T16:58:09.934Z,143.50
2023-12-30T17:00:39.751Z,141.67
2023-12-30T17:03:08.270Z,136.53
2023-12-30T17:05:36.672Z,139.00
2023-12-30T17:08:05.139Z,133.63
2023-12-30T17:10:33.556Z,131.77
2023-12-30T17:13:02.200Z,131.27
2023-12-30T17:15:30.770Z,135.17
2023-12-30T17:18:00.674Z,138.43
2023-12-30T17:20:29.118Z,141.10
2023-12-30T17:22:57.907Z,147.40
2023-12-30T17:25:26.512Z,147.63
2023-12-30T17:27:55.884Z,149.47
2023-12-30T17:30:24.395Z,139.57
2023-12-30T17:32:52.914Z,151.37
2023-12-30T17:35:23.689Z,150.93
2023-12-30T17:37:52.168Z,150.10
2023-12-30T17:40:21.373Z,150.70
2023-12-30T17:42:49.996Z,155.50
2023-12-30T17:45:18.526Z,157.30
2023-12-30T17:47:47.841Z,160.60
2023-12-30T17:50:16.367Z,166.70
2023-12-30T17:52:46.124Z,164.83
2023-12-30T17:55:15.200Z,164.10
2023-12-30T17:57:43.707Z,162.83
2023-12-30T18:00:12.905Z,165.60
2023-12-30T18:02:43.350Z,169.17
2023-12-30T18:05:13.038Z,166.40
2023-12-30T18:07:41.636Z,171.97
2023-12-30T18:10:11.714Z,170.90
2023-12-30T18:12:40.177Z,172.43
2023-12-30T18:15:08.902Z,174.93
2023-12-30T18:17:38.202Z,170.40
2023-12-30T18:20:07.021Z,166.63
2023-12-30T18:22:35.939Z,173.87
2023-12-30T18:25:04.492Z,169.43
2023-12-30T18:27:34.273Z,172.30
2023-12-30T18:30:02.673Z,175.87
2023-12-30T18:32:31.133Z,174.60
2023-12-30T18:35:01.231Z,181.50
2023-12-30T18:37:29.686Z,167.73
2023-12-30T18:39:58.259Z,172.07
2023-12-30T18:42:26.619Z,181.90
2023-12-30T18:44:56.356Z,174.50
2023-12-30T18:47:24.745Z,176.47
2023-12-30T18:49:53.161Z,178.37
2023-12-30T18:52:21.593Z,179.27
2023-12-30T18:54:50.057Z,175.07
2023-12-30T18:57:18.434Z,179.27
2023-12-30T18:59:46.814Z,177.23
2023-12-30T19:02:16.759Z,188.30
2023-12-30T19:04:45.547Z,190.13
2023-12-30T19:07:14.037Z,184.33
2023-12-30T19:09:42.478Z,189.13
2023-12-30T19:12:11.128Z,181.77
2023-12-30T19:14:39.517Z,178.70
2023-12-30T19:17:07.981Z,179.03
2023-12-30T19:19:38.025Z,181.83
2023-12-30T19:22:08.489Z,181.20
2023-12-30T19:24:38.255Z,187.30
2023-12-30T19:27:07.005Z,190.27
2023-12-30T19:29:35.413Z,191.33
2023-12-30T19:32:03.824Z,187.23
2023-12-30T19:34:34.111Z,196.80
2023-12-30T19:37:04.423Z,182.63
2023-12-30T19:39:32.838Z,183.43
2023-12-30T19:42:01.213Z,194.97
2023-12-30T19:44:29.723Z,189.43
2023-12-30T19:46:58.156Z,196.37
2023-12-30T19:49:26.555Z,199.70
2023-12-30T19:51:54.994Z,203.50
2023-12-30T19:54:26.676Z,192.03
2023-12-30T19:56:55.096Z,203.33
2023-12-30T19:59:25.610Z,203.57
2023-12-30T20:01:54.097Z,205.33
2023-12-30T20:04:22.612Z,202.87
2023-12-30T20:06:51.391Z,204.87
2023-12-30T20:09:20.783Z,206.40
2023-12-30T20:11:51.394Z,207.10
2023-12-30T20:14:19.811Z,202.80
2023-12-30T20:16:48.817Z,195.40
2023-12-30T20:19:17.244Z,203.17
2023-12-30T20:21:46.527Z,210.53
2023-12-30T20:24:15.088Z,201.90
2023-12-30T20:26:45.783Z,204.10
2023-12-30T20:29:15.969Z,196.50
2023-12-30T20:31:44.385Z,199.17
2023-12-30T20:34:13.082Z,206.90
2023-12-30T20:36:41.561Z,198.10
2023-12-30T20:39:11.276Z,201.03
2023-12-30T20:41:41.378Z,195.47
2023-12-30T20:44:09.815Z,195.27
2023-12-30T20:46:39.657Z,198.73
2023-12-30T20:49:09.571Z,202.30
2023-12-30T20:51:38.046Z,201.33
2023-12-30T20:54:06.578Z,202.37
2023-12-30T20:56:34.963Z,203.90
2023-12-30T20:59:03.415Z,207.13
2023-12-30T21:01:32.145Z,206.87
2023-12-30T21:04:02.038Z,206.07
2023-12-30T21:06:31.361Z,206.97
2023-12-30T21:08:59.940Z,205.17
2023-12-30T21:11:29.225Z,208.10
2023-12-30T21:13:57.636Z,204.80
2023-12-30T21:16:26.063Z,206.63
2023-12-30T21:18:54.507Z,208.90
2023-12-30T21:21:24.317Z,206.60
2023-12-30T21:23:52.734Z,201.67
2023-12-30T21:26:22.813Z,197.33
2023-12-30T21:28:51.298Z,208.20
2023-12-30T21:31:19.747Z,191.97
2023-12-30T21:33:50.102Z,206.47
2023-12-30T21:36:19.424Z,195.83
2023-12-30T21:38:49.221Z,194.97
2023-12-30T21:41:24.059Z,198.70
2023-12-30T21:43:52.706Z,203.80
2023-12-30T21:46:21.562Z,210.43
2023-12-30T21:48:51.009Z,218.67
2023-12-30T21:51:19.609Z,208.07
2023-12-30T21:53:49.348Z,219.40
2023-12-30T21:56:17.736Z,210.03
2023-12-30T21:58:46.179Z,217.00
2023-12-30T22:01:14.664Z,206.73
2023-12-30T22:03:43.090Z,205.17
2023-12-30T22:06:11.651Z,211.07
2023-12-30T22:08:40.911Z,202.37
2023-12-30T22:11:10.712Z,196.47
2023-12-30T22:13:39.151Z,203.77
2023-12-30T22:16:07.733Z,199.43
2023-12-30T22:18:36.996Z,194.70
2023-12-30T22:21:05.593Z,203.17
2023-12-30T22:23:33.994Z,204.33
2023-12-30T22:26:02.427Z,198.13
2023-12-30T22:28:32.225Z,196.90
2023-12-30T22:31:00.667Z,199.67
2023-12-30T22:33:31.922Z,193.87
2023-12-30T22:36:00.517Z,192.77
2023-12-30T22:38:28.901Z,199.47
2023-12-30T22:40:58.460Z,193.07
2023-12-30T22:43:28.334Z,196.97
2023-12-30T22:45:58.092Z,193.97
2023-12-30T22:48:26.523Z,185.97
2023-12-30T22:50:54.899Z,184.53
2023-12-30T22:53:23.268Z,198.87
2023-12-30T22:55:51.806Z,184.80
2023-12-30T22:58:20.286Z,187.13
2023-12-30T23:00:51.833Z,188.90
2023-12-30T23:03:21.719Z,178.23
2023-12-30T23:05:50.231Z,184.27
2023-12-30T23:08:18.675Z,190.00
2023-12-30T23:10:47.177Z,183.23
2023-12-30T23:13:15.698Z,190.47
2023-12-30T23:15:44.098Z,186.17
2023-12-30T23:18:12.638Z,185.33
2023-12-30T23:20:42.681Z,180.90
2023-12-30T23:23:11.052Z,186.40
2023-12-30T23:25:39.485Z,183.53
2023-12-30T23:28:08.189Z,189.83
2023-12-30T23:30:36.697Z,181.47
2023-12-30T23:33:05.550Z,179.97
2023-12-30T23:35:35.053Z,184.27
2023-12-30T23:38:05.010Z,177.00
2023-12-30T23:40:33.414Z,178.57
2023-12-30T23:43:02.101Z,183.37
2023-12-30T23:45:33.282Z,178.83
2023-12-30T23:48:03.311Z,178.50
2023-12-30T23:50:31.749Z,182.30
2023-12-30T23:53:00.199Z,179.67
2023-12-30T23:55:30.127Z,178.40
2023-12-30T23:57:58.583Z,182.50
